sensor_id;sensor_type;location;lat;lon;timestamp;P1;durP1;ratioP1;P2;durP2;ratioP2
42018;SDS011;27703;51.980;5.848;2022-12-15T00:02:03;22.60;;;11.32;;
42018;SDS011;27703;51.980;5.848;2022-12-15T00:04:47;24.58;;;10.40;;
42018;SDS011;27703;51.980;5.848;2022-12-15T00:07:32;21.45;;;10.05;;
42018;SDS011;27703;51.980;5.848;2022-12-15T00:10:17;24.40;;;12.00;;
42018;SDS011;27703;51.980;5.848;2022-12-15T00:13:02;21.83;;;11.68;;
42018;SDS011;27703;51.980;5.848;2022-12-15T00:15:52;25.48;;;11.73;;
42018;SDS011;27703;51.980;5.848;2022-12-15T00:18:36;25.10;;;11.50;;
42018;SDS011;27703;51.980;5.848;2022-12-15T00:21:20;19.52;;;10.77;;
42018;SDS011;27703;51.980;5.848;2022-12-15T00:24:04;21.15;;;10.20;;
42018;SDS011;27703;51.980;5.848;2022-12-15T00:26:48;22.35;;;10.68;;
42018;SDS011;27703;51.980;5.848;2022-12-15T00:29:32;21.67;;;11.25;;
42018;SDS011;27703;51.980;5.848;2022-12-15T00:32:16;17.02;;;9.40;;
42018;SDS011;27703;51.980;5.848;2022-12-15T00:35:00;19.08;;;10.52;;
42018;SDS011;27703;51.980;5.848;2022-12-15T00:37:45;19.00;;;11.05;;
42018;SDS011;27703;51.980;5.848;2022-12-15T00:40:29;21.17;;;10.63;;
42018;SDS011;27703;51.980;5.848;2022-12-15T00:42:54;21.40;;;10.82;;
42018;SDS011;27703;51.980;5.848;2022-12-15T00:45:20;20.20;;;11.75;;
42018;SDS011;27703;51.980;5.848;2022-12-15T00:48:05;23.55;;;11.23;;
42018;SDS011;27703;51.980;5.848;2022-12-15T00:50:31;22.05;;;12.25;;
42018;SDS011;27703;51.980;5.848;2022-12-15T00:53:15;23.60;;;11.20;;
42018;SDS011;27703;51.980;5.848;2022-12-15T00:55:59;23.92;;;12.25;;
42018;SDS011;27703;51.980;5.848;2022-12-15T00:58:43;18.75;;;11.18;;
42018;SDS011;27703;51.980;5.848;2022-12-15T01:01:27;19.02;;;10.90;;
42018;SDS011;27703;51.980;5.848;2022-12-15T01:04:11;19.55;;;11.05;;
42018;SDS011;27703;51.980;5.848;2022-12-15T01:06:55;19.35;;;11.65;;
42018;SDS011;27703;51.980;5.848;2022-12-15T01:09:39;24.55;;;11.95;;
42018;SDS011;27703;51.980;5.848;2022-12-15T01:12:23;20.42;;;11.07;;
42018;SDS011;27703;51.980;5.848;2022-12-15T01:15:08;19.27;;;12.25;;
42018;SDS011;27703;51.980;5.848;2022-12-15T01:17:52;21.08;;;10.02;;
42018;SDS011;27703;51.980;5.848;2022-12-15T01:20:36;19.98;;;10.52;;
42018;SDS011;27703;51.980;5.848;2022-12-15T01:23:02;19.58;;;10.00;;
42018;SDS011;27703;51.980;5.848;2022-12-15T01:25:27;23.90;;;10.63;;
42018;SDS011;27703;51.980;5.848;2022-12-15T01:27:53;23.05;;;10.95;;
42018;SDS011;27703;51.980;5.848;2022-12-15T01:30:23;26.77;;;11.35;;
42018;SDS011;27703;51.980;5.848;2022-12-15T01:32:50;20.02;;;11.35;;
42018;SDS011;27703;51.980;5.848;2022-12-15T01:35:16;22.13;;;11.65;;
42018;SDS011;27703;51.980;5.848;2022-12-15T01:37:42;17.35;;;11.07;;
42018;SDS011;27703;51.980;5.848;2022-12-15T01:40:11;24.27;;;10.98;;
42018;SDS011;27703;51.980;5.848;2022-12-15T01:42:56;21.38;;;10.30;;
42018;SDS011;27703;51.980;5.848;2022-12-15T01:47:55;22.75;;;11.07;;
42018;SDS011;27703;51.980;5.848;2022-12-15T01:50:24;22.27;;;10.93;;
42018;SDS011;27703;51.980;5.848;2022-12-15T01:52:50;23.70;;;10.45;;
42018;SDS011;27703;51.980;5.848;2022-12-15T01:55:18;23.58;;;11.70;;
42018;SDS011;27703;51.980;5.848;2022-12-15T01:57:46;25.92;;;11.93;;
42018;SDS011;27703;51.980;5.848;2022-12-15T02:00:13;26.13;;;12.68;;
42018;SDS011;27703;51.980;5.848;2022-12-15T02:02:39;23.60;;;11.32;;
42018;SDS011;27703;51.980;5.848;2022-12-15T02:05:05;20.50;;;11.38;;
42018;SDS011;27703;51.980;5.848;2022-12-15T02:07:31;18.85;;;10.70;;
42018;SDS011;27703;51.980;5.848;2022-12-15T02:09:57;19.75;;;11.15;;
42018;SDS011;27703;51.980;5.848;2022-12-15T02:12:47;22.55;;;10.82;;
42018;SDS011;27703;51.980;5.848;2022-12-15T02:17:56;19.20;;;10.45;;
42018;SDS011;27703;51.980;5.848;2022-12-15T02:23:13;22.83;;;10.65;;
42018;SDS011;27703;51.980;5.848;2022-12-15T02:31:27;23.45;;;11.00;;
42018;SDS011;27703;51.980;5.848;2022-12-15T02:34:16;22.25;;;11.52;;
42018;SDS011;27703;51.980;5.848;2022-12-15T02:39:26;22.63;;;10.23;;
42018;SDS011;27703;51.980;5.848;2022-12-15T02:41:52;18.40;;;9.98;;
42018;SDS011;27703;51.980;5.848;2022-12-15T02:44:32;20.45;;;11.07;;
42018;SDS011;27703;51.980;5.848;2022-12-15T02:55:24;25.15;;;11.82;;
42018;SDS011;27703;51.980;5.848;2022-12-15T02:58:02;18.95;;;10.32;;
42018;SDS011;27703;51.980;5.848;2022-12-15T03:01:14;23.77;;;11.60;;
42018;SDS011;27703;51.980;5.848;2022-12-15T03:03:47;21.65;;;11.27;;
42018;SDS011;27703;51.980;5.848;2022-12-15T03:06:14;20.13;;;10.93;;
42018;SDS011;27703;51.980;5.848;2022-12-15T03:08:40;21.85;;;9.65;;
42018;SDS011;27703;51.980;5.848;2022-12-15T03:11:05;22.15;;;11.75;;
42018;SDS011;27703;51.980;5.848;2022-12-15T03:13:31;22.25;;;9.75;;
42018;SDS011;27703;51.980;5.848;2022-12-15T03:15:57;19.67;;;10.45;;
42018;SDS011;27703;51.980;5.848;2022-12-15T03:18:24;20.92;;;10.85;;
42018;SDS011;27703;51.980;5.848;2022-12-15T03:20:49;19.77;;;10.88;;
42018;SDS011;27703;51.980;5.848;2022-12-15T03:23:15;20.52;;;10.23;;
42018;SDS011;27703;51.980;5.848;2022-12-15T03:25:42;18.65;;;10.45;;
42018;SDS011;27703;51.980;5.848;2022-12-15T03:28:09;19.38;;;10.02;;
42018;SDS011;27703;51.980;5.848;2022-12-15T03:30:34;18.52;;;9.07;;
42018;SDS011;27703;51.980;5.848;2022-12-15T03:33:00;19.23;;;9.75;;
42018;SDS011;27703;51.980;5.848;2022-12-15T03:35:25;23.70;;;9.95;;
42018;SDS011;27703;51.980;5.848;2022-12-15T03:37:51;18.15;;;9.77;;
42018;SDS011;27703;51.980;5.848;2022-12-15T03:40:16;23.90;;;11.82;;
42018;SDS011;27703;51.980;5.848;2022-12-15T03:42:45;21.05;;;10.75;;
42018;SDS011;27703;51.980;5.848;2022-12-15T03:45:14;17.02;;;9.27;;
42018;SDS011;27703;51.980;5.848;2022-12-15T03:47:42;20.67;;;10.32;;
42018;SDS011;27703;51.980;5.848;2022-12-15T03:50:09;21.20;;;10.23;;
42018;SDS011;27703;51.980;5.848;2022-12-15T03:52:36;18.63;;;9.65;;
42018;SDS011;27703;51.980;5.848;2022-12-15T03:55:02;17.42;;;10.30;;
42018;SDS011;27703;51.980;5.848;2022-12-15T03:57:28;16.50;;;9.38;;
42018;SDS011;27703;51.980;5.848;2022-12-15T03:59:54;19.45;;;10.38;;
42018;SDS011;27703;51.980;5.848;2022-12-15T04:02:20;24.58;;;10.13;;
42018;SDS011;27703;51.980;5.848;2022-12-15T04:04:45;20.70;;;10.02;;
42018;SDS011;27703;51.980;5.848;2022-12-15T04:07:12;20.08;;;10.93;;
42018;SDS011;27703;51.980;5.848;2022-12-15T04:09:38;21.00;;;9.55;;
42018;SDS011;27703;51.980;5.848;2022-12-15T04:12:03;20.60;;;10.48;;
42018;SDS011;27703;51.980;5.848;2022-12-15T04:14:29;16.58;;;8.10;;
42018;SDS011;27703;51.980;5.848;2022-12-15T04:16:55;18.73;;;8.63;;
42018;SDS011;27703;51.980;5.848;2022-12-15T04:19:20;21.00;;;10.93;;
42018;SDS011;27703;51.980;5.848;2022-12-15T04:22:04;20.63;;;10.82;;
42018;SDS011;27703;51.980;5.848;2022-12-15T04:24:30;16.90;;;8.73;;
42018;SDS011;27703;51.980;5.848;2022-12-15T04:27:14;16.77;;;8.60;;
42018;SDS011;27703;51.980;5.848;2022-12-15T04:29:59;26.13;;;10.05;;
42018;SDS011;27703;51.980;5.848;2022-12-15T04:32:44;21.88;;;10.63;;
42018;SDS011;27703;51.980;5.848;2022-12-15T04:35:28;18.23;;;10.02;;
42018;SDS011;27703;51.980;5.848;2022-12-15T04:38:14;17.55;;;8.50;;
42018;SDS011;27703;51.980;5.848;2022-12-15T04:40:58;20.42;;;10.27;;
42018;SDS011;27703;51.980;5.848;2022-12-15T04:43:43;20.50;;;10.27;;
42018;SDS011;27703;51.980;5.848;2022-12-15T04:46:27;20.90;;;9.90;;
42018;SDS011;27703;51.980;5.848;2022-12-15T04:49:11;22.42;;;10.57;;
42018;SDS011;27703;51.980;5.848;2022-12-15T04:51:56;24.30;;;10.35;;
42018;SDS011;27703;51.980;5.848;2022-12-15T04:54:40;17.50;;;9.27;;
42018;SDS011;27703;51.980;5.848;2022-12-15T04:57:24;21.60;;;10.10;;
42018;SDS011;27703;51.980;5.848;2022-12-15T05:00:09;21.05;;;10.30;;
42018;SDS011;27703;51.980;5.848;2022-12-15T05:02:53;21.95;;;11.18;;
42018;SDS011;27703;51.980;5.848;2022-12-15T05:05:38;18.27;;;9.77;;
42018;SDS011;27703;51.980;5.848;2022-12-15T05:08:22;19.95;;;10.55;;
42018;SDS011;27703;51.980;5.848;2022-12-15T05:11:06;26.10;;;12.43;;
42018;SDS011;27703;51.980;5.848;2022-12-15T05:13:50;23.15;;;11.20;;
42018;SDS011;27703;51.980;5.848;2022-12-15T05:16:34;18.90;;;10.73;;
42018;SDS011;27703;51.980;5.848;2022-12-15T05:19:18;20.15;;;9.75;;
42018;SDS011;27703;51.980;5.848;2022-12-15T05:22:02;22.33;;;10.27;;
42018;SDS011;27703;51.980;5.848;2022-12-15T05:24:46;24.05;;;10.60;;
42018;SDS011;27703;51.980;5.848;2022-12-15T05:27:30;28.13;;;12.48;;
42018;SDS011;27703;51.980;5.848;2022-12-15T05:30:14;20.70;;;10.40;;
42018;SDS011;27703;51.980;5.848;2022-12-15T05:33:02;23.00;;;10.82;;
42018;SDS011;27703;51.980;5.848;2022-12-15T05:35:28;19.65;;;10.73;;
42018;SDS011;27703;51.980;5.848;2022-12-15T05:37:54;25.10;;;11.02;;
42018;SDS011;27703;51.980;5.848;2022-12-15T05:40:19;25.00;;;10.43;;
42018;SDS011;27703;51.980;5.848;2022-12-15T05:42:45;17.52;;;10.27;;
42018;SDS011;27703;51.980;5.848;2022-12-15T05:45:10;21.67;;;11.48;;
42018;SDS011;27703;51.980;5.848;2022-12-15T05:47:36;20.23;;;9.60;;
42018;SDS011;27703;51.980;5.848;2022-12-15T05:50:02;19.92;;;10.98;;
42018;SDS011;27703;51.980;5.848;2022-12-15T05:52:27;18.25;;;10.75;;
42018;SDS011;27703;51.980;5.848;2022-12-15T05:54:53;23.20;;;11.35;;
42018;SDS011;27703;51.980;5.848;2022-12-15T05:57:18;23.85;;;11.77;;
42018;SDS011;27703;51.980;5.848;2022-12-15T05:59:44;22.85;;;11.32;;
42018;SDS011;27703;51.980;5.848;2022-12-15T06:02:09;21.73;;;12.27;;
42018;SDS011;27703;51.980;5.848;2022-12-15T06:04:35;23.35;;;12.15;;
42018;SDS011;27703;51.980;5.848;2022-12-15T06:07:00;24.17;;;11.80;;
42018;SDS011;27703;51.980;5.848;2022-12-15T06:09:26;22.42;;;11.48;;
42018;SDS011;27703;51.980;5.848;2022-12-15T06:11:52;22.33;;;11.10;;
42018;SDS011;27703;51.980;5.848;2022-12-15T06:14:18;20.05;;;11.73;;
42018;SDS011;27703;51.980;5.848;2022-12-15T06:16:44;18.45;;;10.68;;
42018;SDS011;27703;51.980;5.848;2022-12-15T06:19:09;19.52;;;10.85;;
42018;SDS011;27703;51.980;5.848;2022-12-15T06:21:35;26.23;;;12.80;;
42018;SDS011;27703;51.980;5.848;2022-12-15T06:24:01;25.13;;;12.10;;
42018;SDS011;27703;51.980;5.848;2022-12-15T06:26:29;20.00;;;10.52;;
42018;SDS011;27703;51.980;5.848;2022-12-15T06:29:00;20.10;;;10.43;;
42018;SDS011;27703;51.980;5.848;2022-12-15T06:31:27;23.20;;;12.90;;
42018;SDS011;27703;51.980;5.848;2022-12-15T06:33:54;24.10;;;12.30;;
42018;SDS011;27703;51.980;5.848;2022-12-15T06:36:21;22.02;;;11.45;;
42018;SDS011;27703;51.980;5.848;2022-12-15T06:38:50;22.58;;;13.10;;
42018;SDS011;27703;51.980;5.848;2022-12-15T06:41:17;27.85;;;13.57;;
42018;SDS011;27703;51.980;5.848;2022-12-15T06:43:48;22.67;;;12.13;;
42018;SDS011;27703;51.980;5.848;2022-12-15T06:46:17;30.80;;;12.88;;
42018;SDS011;27703;51.980;5.848;2022-12-15T06:48:44;25.25;;;13.45;;
42018;SDS011;27703;51.980;5.848;2022-12-15T06:51:10;26.58;;;12.75;;
42018;SDS011;27703;51.980;5.848;2022-12-15T06:53:38;23.95;;;12.65;;
42018;SDS011;27703;51.980;5.848;2022-12-15T06:56:19;21.75;;;12.75;;
42018;SDS011;27703;51.980;5.848;2022-12-15T06:58:47;23.63;;;13.27;;
42018;SDS011;27703;51.980;5.848;2022-12-15T07:01:14;24.83;;;12.23;;
42018;SDS011;27703;51.980;5.848;2022-12-15T07:03:40;26.08;;;13.73;;
42018;SDS011;27703;51.980;5.848;2022-12-15T07:06:07;26.35;;;13.20;;
42018;SDS011;27703;51.980;5.848;2022-12-15T07:08:35;22.92;;;12.80;;
42018;SDS011;27703;51.980;5.848;2022-12-15T07:11:04;30.85;;;13.48;;
42018;SDS011;27703;51.980;5.848;2022-12-15T07:13:31;27.02;;;13.20;;
42018;SDS011;27703;51.980;5.848;2022-12-15T07:15:58;25.63;;;13.18;;
42018;SDS011;27703;51.980;5.848;2022-12-15T07:18:24;24.45;;;13.07;;
42018;SDS011;27703;51.980;5.848;2022-12-15T07:20:50;24.77;;;13.23;;
42018;SDS011;27703;51.980;5.848;2022-12-15T07:23:16;31.13;;;13.57;;
42018;SDS011;27703;51.980;5.848;2022-12-15T07:25:41;23.33;;;12.73;;
42018;SDS011;27703;51.980;5.848;2022-12-15T07:28:07;29.52;;;13.18;;
42018;SDS011;27703;51.980;5.848;2022-12-15T07:30:33;24.30;;;14.07;;
42018;SDS011;27703;51.980;5.848;2022-12-15T07:32:59;24.52;;;13.05;;
42018;SDS011;27703;51.980;5.848;2022-12-15T07:35:25;28.38;;;13.02;;
42018;SDS011;27703;51.980;5.848;2022-12-15T07:37:51;25.10;;;13.75;;
42018;SDS011;27703;51.980;5.848;2022-12-15T07:40:16;26.10;;;13.50;;
42018;SDS011;27703;51.980;5.848;2022-12-15T07:42:42;24.55;;;13.30;;
42018;SDS011;27703;51.980;5.848;2022-12-15T07:45:08;36.70;;;14.63;;
42018;SDS011;27703;51.980;5.848;2022-12-15T07:47:34;21.38;;;11.65;;
42018;SDS011;27703;51.980;5.848;2022-12-15T07:50:00;21.52;;;11.73;;
42018;SDS011;27703;51.980;5.848;2022-12-15T07:52:26;25.15;;;12.90;;
42018;SDS011;27703;51.980;5.848;2022-12-15T07:54:52;23.65;;;14.60;;
42018;SDS011;27703;51.980;5.848;2022-12-15T07:57:17;27.88;;;14.25;;
42018;SDS011;27703;51.980;5.848;2022-12-15T07:59:43;25.30;;;13.23;;
42018;SDS011;27703;51.980;5.848;2022-12-15T08:02:10;22.92;;;12.07;;
42018;SDS011;27703;51.980;5.848;2022-12-15T08:04:36;22.92;;;11.80;;
42018;SDS011;27703;51.980;5.848;2022-12-15T08:07:02;25.15;;;12.23;;
42018;SDS011;27703;51.980;5.848;2022-12-15T08:09:28;22.58;;;11.98;;
42018;SDS011;27703;51.980;5.848;2022-12-15T08:11:55;29.35;;;15.85;;
42018;SDS011;27703;51.980;5.848;2022-12-15T08:14:21;21.77;;;11.88;;
42018;SDS011;27703;51.980;5.848;2022-12-15T08:16:46;26.15;;;13.35;;
42018;SDS011;27703;51.980;5.848;2022-12-15T08:19:13;27.23;;;14.98;;
42018;SDS011;27703;51.980;5.848;2022-12-15T08:21:40;28.15;;;14.30;;
42018;SDS011;27703;51.980;5.848;2022-12-15T08:24:07;30.48;;;14.80;;
42018;SDS011;27703;51.980;5.848;2022-12-15T08:26:33;30.00;;;14.77;;
42018;SDS011;27703;51.980;5.848;2022-12-15T08:29:00;25.00;;;13.35;;
42018;SDS011;27703;51.980;5.848;2022-12-15T08:31:28;32.53;;;14.20;;
42018;SDS011;27703;51.980;5.848;2022-12-15T08:33:56;26.48;;;13.85;;
42018;SDS011;27703;51.980;5.848;2022-12-15T08:36:21;24.92;;;12.00;;
42018;SDS011;27703;51.980;5.848;2022-12-15T08:38:47;27.58;;;13.75;;
42018;SDS011;27703;51.980;5.848;2022-12-15T08:41:15;27.95;;;14.48;;
42018;SDS011;27703;51.980;5.848;2022-12-15T08:43:47;24.20;;;12.00;;
42018;SDS011;27703;51.980;5.848;2022-12-15T08:46:14;30.00;;;15.52;;
42018;SDS011;27703;51.980;5.848;2022-12-15T08:48:41;29.88;;;15.02;;
42018;SDS011;27703;51.980;5.848;2022-12-15T08:51:06;31.35;;;15.23;;
42018;SDS011;27703;51.980;5.848;2022-12-15T08:53:33;27.42;;;15.73;;
42018;SDS011;27703;51.980;5.848;2022-12-15T08:56:03;29.92;;;15.68;;
42018;SDS011;27703;51.980;5.848;2022-12-15T08:58:30;25.63;;;12.88;;
42018;SDS011;27703;51.980;5.848;2022-12-15T09:01:03;29.02;;;15.57;;
42018;SDS011;27703;51.980;5.848;2022-12-15T09:03:31;28.58;;;14.32;;
42018;SDS011;27703;51.980;5.848;2022-12-15T09:06:07;27.77;;;15.38;;
42018;SDS011;27703;51.980;5.848;2022-12-15T09:08:37;34.95;;;18.50;;
42018;SDS011;27703;51.980;5.848;2022-12-15T09:11:03;39.08;;;19.52;;
42018;SDS011;27703;51.980;5.848;2022-12-15T09:13:31;34.33;;;17.85;;
42018;SDS011;27703;51.980;5.848;2022-12-15T09:15:58;30.05;;;17.00;;
42018;SDS011;27703;51.980;5.848;2022-12-15T09:18:25;28.27;;;17.00;;
42018;SDS011;27703;51.980;5.848;2022-12-15T09:20:51;34.05;;;18.38;;
42018;SDS011;27703;51.980;5.848;2022-12-15T09:23:16;32.65;;;16.90;;
42018;SDS011;27703;51.980;5.848;2022-12-15T09:25:42;34.30;;;18.50;;
42018;SDS011;27703;51.980;5.848;2022-12-15T09:28:08;28.35;;;16.63;;
42018;SDS011;27703;51.980;5.848;2022-12-15T09:30:34;32.92;;;18.08;;
42018;SDS011;27703;51.980;5.848;2022-12-15T09:32:59;39.67;;;19.98;;
42018;SDS011;27703;51.980;5.848;2022-12-15T09:35:25;37.00;;;19.63;;
42018;SDS011;27703;51.980;5.848;2022-12-15T09:37:51;38.70;;;19.73;;
42018;SDS011;27703;51.980;5.848;2022-12-15T09:40:17;26.35;;;16.25;;
42018;SDS011;27703;51.980;5.848;2022-12-15T09:42:44;32.70;;;20.00;;
42018;SDS011;27703;51.980;5.848;2022-12-15T09:45:16;43.15;;;23.92;;
42018;SDS011;27703;51.980;5.848;2022-12-15T09:47:57;42.58;;;24.20;;
42018;SDS011;27703;51.980;5.848;2022-12-15T09:50:36;45.05;;;26.42;;
42018;SDS011;27703;51.980;5.848;2022-12-15T09:53:03;40.28;;;22.40;;
42018;SDS011;27703;51.980;5.848;2022-12-15T09:55:33;34.63;;;21.67;;
42018;SDS011;27703;51.980;5.848;2022-12-15T09:57:59;42.47;;;23.50;;
42018;SDS011;27703;51.980;5.848;2022-12-15T10:00:36;43.33;;;25.08;;
42018;SDS011;27703;51.980;5.848;2022-12-15T10:03:26;39.55;;;21.20;;
42018;SDS011;27703;51.980;5.848;2022-12-15T10:06:10;36.30;;;20.05;;
42018;SDS011;27703;51.980;5.848;2022-12-15T10:08:44;36.30;;;21.30;;
42018;SDS011;27703;51.980;5.848;2022-12-15T10:19:18;44.63;;;24.05;;
42018;SDS011;27703;51.980;5.848;2022-12-15T10:21:50;42.13;;;23.73;;
42018;SDS011;27703;51.980;5.848;2022-12-15T10:24:20;41.42;;;23.20;;
42018;SDS011;27703;51.980;5.848;2022-12-15T10:29:44;42.05;;;23.42;;
42018;SDS011;27703;51.980;5.848;2022-12-15T10:32:18;50.67;;;24.50;;
42018;SDS011;27703;51.980;5.848;2022-12-15T10:34:49;41.28;;;22.13;;
42018;SDS011;27703;51.980;5.848;2022-12-15T10:37:15;44.60;;;24.63;;
42018;SDS011;27703;51.980;5.848;2022-12-15T10:39:43;41.65;;;22.30;;
42018;SDS011;27703;51.980;5.848;2022-12-15T10:42:14;39.15;;;23.23;;
42018;SDS011;27703;51.980;5.848;2022-12-15T10:44:52;42.88;;;24.77;;
42018;SDS011;27703;51.980;5.848;2022-12-15T10:47:20;35.97;;;21.73;;
42018;SDS011;27703;51.980;5.848;2022-12-15T10:49:49;37.85;;;23.17;;
42018;SDS011;27703;51.980;5.848;2022-12-15T10:52:26;43.72;;;26.23;;
42018;SDS011;27703;51.980;5.848;2022-12-15T10:54:58;46.33;;;23.83;;
42018;SDS011;27703;51.980;5.848;2022-12-15T10:57:25;43.55;;;25.67;;
42018;SDS011;27703;51.980;5.848;2022-12-15T10:59:52;44.60;;;28.00;;
42018;SDS011;27703;51.980;5.848;2022-12-15T11:07:32;46.38;;;25.40;;
42018;SDS011;27703;51.980;5.848;2022-12-15T11:13:18;48.58;;;24.05;;
42018;SDS011;27703;51.980;5.848;2022-12-15T11:15:48;38.63;;;24.00;;
42018;SDS011;27703;51.980;5.848;2022-12-15T11:21:22;40.17;;;24.55;;
42018;SDS011;27703;51.980;5.848;2022-12-15T11:31:47;38.58;;;24.52;;
42018;SDS011;27703;51.980;5.848;2022-12-15T11:34:15;42.55;;;24.05;;
42018;SDS011;27703;51.980;5.848;2022-12-15T11:48:03;39.35;;;24.17;;
42018;SDS011;27703;51.980;5.848;2022-12-15T11:56:30;39.90;;;25.17;;
42018;SDS011;27703;51.980;5.848;2022-12-15T11:59:09;36.05;;;21.88;;
42018;SDS011;27703;51.980;5.848;2022-12-15T12:07:55;37.20;;;24.45;;
42018;SDS011;27703;51.980;5.848;2022-12-15T12:13:30;43.00;;;24.35;;
42018;SDS011;27703;51.980;5.848;2022-12-15T12:21:43;45.75;;;28.13;;
42018;SDS011;27703;51.980;5.848;2022-12-15T12:24:22;41.78;;;26.05;;
42018;SDS011;27703;51.980;5.848;2022-12-15T12:27:01;42.63;;;25.77;;
42018;SDS011;27703;51.980;5.848;2022-12-15T12:29:43;39.70;;;24.05;;
42018;SDS011;27703;51.980;5.848;2022-12-15T12:32:16;38.58;;;22.48;;
42018;SDS011;27703;51.980;5.848;2022-12-15T12:35:08;38.55;;;24.55;;
42018;SDS011;27703;51.980;5.848;2022-12-15T12:46:21;51.00;;;29.98;;
42018;SDS011;27703;51.980;5.848;2022-12-15T12:51:33;37.17;;;22.77;;
42018;SDS011;27703;51.980;5.848;2022-12-15T12:54:01;33.42;;;21.45;;
42018;SDS011;27703;51.980;5.848;2022-12-15T12:56:54;35.85;;;23.38;;
42018;SDS011;27703;51.980;5.848;2022-12-15T13:01:54;33.63;;;23.13;;
42018;SDS011;27703;51.980;5.848;2022-12-15T13:09:46;41.13;;;25.52;;
42018;SDS011;27703;51.980;5.848;2022-12-15T13:15:13;42.42;;;27.80;;
42018;SDS011;27703;51.980;5.848;2022-12-15T13:17:43;39.00;;;25.90;;
42018;SDS011;27703;51.980;5.848;2022-12-15T13:20:16;36.17;;;24.60;;
42018;SDS011;27703;51.980;5.848;2022-12-15T13:22:50;41.03;;;23.70;;
42018;SDS011;27703;51.980;5.848;2022-12-15T13:25:32;40.28;;;25.88;;
42018;SDS011;27703;51.980;5.848;2022-12-15T13:28:00;40.97;;;25.63;;
42018;SDS011;27703;51.980;5.848;2022-12-15T13:33:43;38.90;;;24.33;;
42018;SDS011;27703;51.980;5.848;2022-12-15T13:36:09;39.58;;;24.35;;
42018;SDS011;27703;51.980;5.848;2022-12-15T13:38:51;35.65;;;23.85;;
42018;SDS011;27703;51.980;5.848;2022-12-15T13:41:22;33.65;;;21.45;;
42018;SDS011;27703;51.980;5.848;2022-12-15T13:43:50;39.35;;;24.70;;
42018;SDS011;27703;51.980;5.848;2022-12-15T13:46:24;37.95;;;24.30;;
42018;SDS011;27703;51.980;5.848;2022-12-15T13:49:12;37.38;;;23.33;;
42018;SDS011;27703;51.980;5.848;2022-12-15T13:51:43;38.35;;;24.15;;
42018;SDS011;27703;51.980;5.848;2022-12-15T13:54:11;38.20;;;23.33;;
42018;SDS011;27703;51.980;5.848;2022-12-15T13:56:44;33.90;;;21.38;;
42018;SDS011;27703;51.980;5.848;2022-12-15T14:01:57;36.05;;;21.80;;
42018;SDS011;27703;51.980;5.848;2022-12-15T14:04:24;33.55;;;22.48;;
42018;SDS011;27703;51.980;5.848;2022-12-15T14:06:54;35.33;;;22.70;;
42018;SDS011;27703;51.980;5.848;2022-12-15T14:09:27;36.83;;;23.23;;
42018;SDS011;27703;51.980;5.848;2022-12-15T14:11:57;33.40;;;21.02;;
42018;SDS011;27703;51.980;5.848;2022-12-15T14:14:30;34.22;;;21.35;;
42018;SDS011;27703;51.980;5.848;2022-12-15T14:17:01;35.78;;;22.23;;
42018;SDS011;27703;51.980;5.848;2022-12-15T14:22:01;45.50;;;24.02;;
42018;SDS011;27703;51.980;5.848;2022-12-15T14:24:28;36.90;;;22.20;;
42018;SDS011;27703;51.980;5.848;2022-12-15T14:26:55;37.85;;;22.77;;
42018;SDS011;27703;51.980;5.848;2022-12-15T14:29:21;36.08;;;22.88;;
42018;SDS011;27703;51.980;5.848;2022-12-15T14:31:54;43.08;;;24.63;;
42018;SDS011;27703;51.980;5.848;2022-12-15T14:36:49;48.28;;;25.40;;
42018;SDS011;27703;51.980;5.848;2022-12-15T14:39:18;39.47;;;21.98;;
42018;SDS011;27703;51.980;5.848;2022-12-15T14:41:50;33.60;;;22.08;;
42018;SDS011;27703;51.980;5.848;2022-12-15T14:44:19;41.78;;;23.45;;
42018;SDS011;27703;51.980;5.848;2022-12-15T14:47:02;36.72;;;22.20;;
42018;SDS011;27703;51.980;5.848;2022-12-15T14:49:31;37.20;;;20.75;;
42018;SDS011;27703;51.980;5.848;2022-12-15T14:52:03;39.17;;;21.48;;
42018;SDS011;27703;51.980;5.848;2022-12-15T14:54:35;38.13;;;21.98;;
42018;SDS011;27703;51.980;5.848;2022-12-15T14:57:16;32.55;;;20.88;;
42018;SDS011;27703;51.980;5.848;2022-12-15T14:59:44;43.78;;;24.20;;
42018;SDS011;27703;51.980;5.848;2022-12-15T15:05:04;29.08;;;18.15;;
42018;SDS011;27703;51.980;5.848;2022-12-15T15:07:32;33.50;;;20.10;;
42018;SDS011;27703;51.980;5.848;2022-12-15T15:10:02;32.88;;;20.73;;
42018;SDS011;27703;51.980;5.848;2022-12-15T15:12:44;32.75;;;20.45;;
42018;SDS011;27703;51.980;5.848;2022-12-15T15:15:13;28.75;;;18.17;;
42018;SDS011;27703;51.980;5.848;2022-12-15T15:17:44;37.33;;;21.92;;
42018;SDS011;27703;51.980;5.848;2022-12-15T15:22:41;31.95;;;20.25;;
42018;SDS011;27703;51.980;5.848;2022-12-15T15:30:40;34.28;;;21.17;;
42018;SDS011;27703;51.980;5.848;2022-12-15T15:33:32;33.17;;;19.98;;
42018;SDS011;27703;51.980;5.848;2022-12-15T15:36:01;32.67;;;21.85;;
42018;SDS011;27703;51.980;5.848;2022-12-15T15:38:32;35.42;;;20.15;;
42018;SDS011;27703;51.980;5.848;2022-12-15T15:43:43;34.55;;;20.42;;
42018;SDS011;27703;51.980;5.848;2022-12-15T15:46:09;37.75;;;22.33;;
42018;SDS011;27703;51.980;5.848;2022-12-15T15:48:38;33.38;;;19.80;;
42018;SDS011;27703;51.980;5.848;2022-12-15T15:51:08;40.97;;;24.80;;
42018;SDS011;27703;51.980;5.848;2022-12-15T15:53:33;36.50;;;21.60;;
42018;SDS011;27703;51.980;5.848;2022-12-15T15:55:59;37.88;;;22.70;;
42018;SDS011;27703;51.980;5.848;2022-12-15T15:58:26;36.20;;;23.05;;
42018;SDS011;27703;51.980;5.848;2022-12-15T16:00:52;36.10;;;22.65;;
42018;SDS011;27703;51.980;5.848;2022-12-15T16:03:18;37.15;;;22.90;;
42018;SDS011;27703;51.980;5.848;2022-12-15T16:05:43;36.92;;;23.85;;
42018;SDS011;27703;51.980;5.848;2022-12-15T16:08:13;41.10;;;24.63;;
42018;SDS011;27703;51.980;5.848;2022-12-15T16:10:45;38.17;;;22.70;;
42018;SDS011;27703;51.980;5.848;2022-12-15T16:15:43;39.72;;;23.50;;
42018;SDS011;27703;51.980;5.848;2022-12-15T16:18:08;35.42;;;23.15;;
42018;SDS011;27703;51.980;5.848;2022-12-15T16:20:34;39.17;;;24.58;;
42018;SDS011;27703;51.980;5.848;2022-12-15T16:23:09;40.40;;;23.83;;
42018;SDS011;27703;51.980;5.848;2022-12-15T16:25:38;38.40;;;23.50;;
42018;SDS011;27703;51.980;5.848;2022-12-15T16:28:10;42.38;;;23.30;;
42018;SDS011;27703;51.980;5.848;2022-12-15T16:30:39;39.08;;;23.52;;
42018;SDS011;27703;51.980;5.848;2022-12-15T16:33:05;37.58;;;24.02;;
42018;SDS011;27703;51.980;5.848;2022-12-15T16:35:31;39.10;;;24.23;;
42018;SDS011;27703;51.980;5.848;2022-12-15T16:37:56;37.75;;;23.40;;
42018;SDS011;27703;51.980;5.848;2022-12-15T16:40:23;35.58;;;21.75;;
42018;SDS011;27703;51.980;5.848;2022-12-15T16:42:58;38.92;;;23.40;;
42018;SDS011;27703;51.980;5.848;2022-12-15T16:45:26;42.03;;;23.15;;
42018;SDS011;27703;51.980;5.848;2022-12-15T16:47:53;36.80;;;24.05;;
42018;SDS011;27703;51.980;5.848;2022-12-15T16:50:56;43.83;;;25.38;;
42018;SDS011;27703;51.980;5.848;2022-12-15T16:53:17;38.47;;;25.90;;
42018;SDS011;27703;51.980;5.848;2022-12-15T16:55:45;44.88;;;26.73;;
42018;SDS011;27703;51.980;5.848;2022-12-15T16:58:13;44.70;;;27.80;;
42018;SDS011;27703;51.980;5.848;2022-12-15T17:00:41;41.15;;;24.85;;
42018;SDS011;27703;51.980;5.848;2022-12-15T17:03:12;42.30;;;25.70;;
42018;SDS011;27703;51.980;5.848;2022-12-15T17:05:39;43.08;;;26.40;;